ADDS METAR Data INFO
IDs: Format: Raw Decoded Include TAF

Data at: 0859 UTC 20 Oct 2017

KBEC 200855Z AUTO 16008KT 10SM CLR 13/12 A3004 RMK AO2 T01310115
KBEC 200835Z AUTO 16009KT 10SM CLR 13/12 A3004 RMK AO2 T01340115
KBEC 200815Z AUTO 15008KT 10SM CLR 14/12 A3004 RMK AO2 T01370116
KBEC 200755Z AUTO 16010KT 7SM CLR 14/12 A3005 RMK AO2 T01390115
KBEC 200735Z AUTO 15009KT 10SM CLR 14/12 A3005 RMK AO2 T01400117
KBEC 200715Z AUTO 15010KT 10SM CLR 14/12 A3005 RMK AO2 T01400118
KBEC 200655Z AUTO 15010KT 10SM CLR 14/12 A3005 RMK AO2 T01420118
KBEC 200635Z AUTO 15008KT 10SM CLR 14/12 A3006 RMK AO2 T01410117
KBEC 200615Z AUTO 15011KT 10SM CLR 14/12 A3006 RMK AO2 T01440117
KBEC 200555Z AUTO 15010KT 10SM CLR 15/12 A3006 RMK AO2 T01460117 10206 20145 402620087
KBEC 200535Z AUTO 16010KT 10SM CLR 15/12 A3007 RMK AO2 T01450115
KBEC 200515Z AUTO 16010KT 10SM CLR 15/12 A3007 RMK AO2 T01460115
KBEC 200455Z AUTO 16010KT 10SM CLR 15/11 A3007 RMK AO2 T01470112
KBEC 200435Z AUTO 16010KT 10SM CLR 15/11 A3008 RMK AO2 T01510110
KBEC 200415Z AUTO 16010KT 10SM CLR 16/11 A3008 RMK AO2 T01550106
KBEC 200355Z AUTO 16010KT 10SM CLR 16/11 A3007 RMK AO2 T01560105
KBEC 200335Z AUTO 16009KT 10SM CLR 16/11 A3007 RMK AO2 T01590105
KBEC 200315Z AUTO 16011G16KT 10SM CLR 16/10 A3007 RMK AO2 T01620103
KBEC 200255Z AUTO 15010KT 10SM CLR 16/10 A3006 RMK AO2 T01580102
KBEC 200235Z AUTO 16008KT 10SM CLR 16/10 A3005 RMK AO2 T01560101
KBEC 200215Z AUTO 16008KT 10SM CLR 16/10 A3005 RMK AO2 T01580099
KBEC 200155Z AUTO 15008KT 10SM CLR 16/10 A3005 RMK AO2 T01600095
KBEC 200135Z AUTO 14006KT 10SM CLR 16/09 A3005 RMK AO2 T01600093
KBEC 200115Z AUTO 15005KT 10SM CLR 17/09 A3005 RMK AO2 T01710093
KBEC 200055Z AUTO 15008KT 10SM CLR 18/09 A3005 RMK AO2 T01810093
KBEC 200035Z AUTO 15009G14KT 10SM CLR 19/09 A3005 RMK AO2 T01940092
KBEC 200015Z AUTO 13013KT 10SM CLR 20/09 A3005 RMK AO2 T01950087
KBEC 192355Z AUTO 16011G16KT 10SM CLR 21/08 A3004 RMK AO2 T02070084 10262 20205
KBEC 192335Z AUTO 17010KT 10SM CLR 22/08 A3004 RMK AO2 T02180084
KBEC 192315Z AUTO 16010KT 10SM CLR 22/09 A3004 RMK AO2 T02230087
KBEC 192255Z AUTO 15012G17KT 10SM CLR 23/09 A3004 RMK AO2 T02340086
KBEC 192235Z AUTO 16015G18KT 10SM CLR 24/08 A3004 RMK AO2 T02430076
KBEC 192215Z AUTO 17009G17KT 10SM CLR 25/06 A3004 RMK AO2 T02500063
KBEC 192155Z AUTO 17010G17KT 10SM CLR 26/07 A3004 RMK AO2 T02570068
KBEC 192135Z AUTO 17011G16KT 10SM CLR 26/09 A3004 RMK AO2 T02600086
KBEC 192115Z AUTO 17013G20KT 10SM CLR 26/08 A3004 RMK AO2 T02600079
KBEC 192055Z AUTO 18011G19KT 10SM CLR 26/07 A3004 RMK AO2 T02610069
KBEC 192035Z AUTO 17013G21KT 10SM CLR 26/08 A3005 RMK AO2 T02590079
KBEC 192015Z AUTO 17011G20KT 10SM CLR 26/08 A3005 RMK AO2 T02620084
KBEC 191955Z AUTO 18006G17KT 10SM CLR 26/09 A3005 RMK AO2 T02570085
KBEC 191935Z AUTO 17006KT 10SM CLR 25/09 A3006 RMK AO2 T02510093
KBEC 191915Z AUTO 18008G15KT 10SM CLR 25/09 A3007 RMK AO2 T02490094
KBEC 191855Z AUTO 20008G16KT 10SM CLR 25/09 A3007 RMK AO2 T02480088
KBEC 191835Z AUTO 17011KT 10SM CLR 25/09 A3008 RMK AO2 T02500093
KBEC 191815Z AUTO 20007KT 10SM CLR 24/09 A3009 RMK AO2 T02430089
KBEC 191755Z AUTO 20009KT 10SM CLR 24/09 A3010 RMK AO2 T02370088 10237 20087
KBEC 191735Z AUTO 21008KT 10SM CLR 23/09 A3011 RMK AO2 T02280087
KBEC 191715Z AUTO 19010KT 10SM CLR 22/09 A3012 RMK AO2 T02240089
KBEC 191655Z AUTO 18010KT 10SM CLR 22/09 A3012 RMK AO2 T02170092
KBEC 191635Z AUTO 20009KT 10SM CLR 21/09 A3012 RMK AO2 T02090089
KBEC 191615Z AUTO 19011G14KT 140V200 10SM CLR 20/09 A3012 RMK AO2 T01980090
KBEC 191555Z AUTO 19011KT 10SM CLR 19/09 A3011 RMK AO2 T01920086
KBEC 191535Z AUTO 20011G14KT 140V200 10SM CLR 19/09 A3011 RMK AO2 T01890087
KBEC 191515Z AUTO 15006G15KT 10SM CLR 18/09 A3011 RMK AO2 T01760087
KBEC 191455Z AUTO 17006G14KT 10SM CLR 16/09 A3011 RMK AO2 T01630088
KBEC 191435Z AUTO 17011KT 10SM CLR 15/09 A3011 RMK AO2 T01510085
KBEC 191415Z AUTO 17008KT 10SM CLR 14/09 A3010 RMK AO2 T01390087
KBEC 191355Z AUTO 17008KT 10SM CLR 12/09 A3010 RMK AO2 T01230086
KBEC 191335Z AUTO 17007KT 10SM CLR 11/08 A3009 RMK AO2 T01130081
KBEC 191315Z AUTO 16005KT 10SM CLR 10/08 A3008 RMK AO2 T00990076
KBEC 191255Z AUTO 16005KT 10SM CLR 09/07 A3008 RMK AO2 T00900068
KBEC 191235Z AUTO 16004KT 10SM CLR 09/07 A3008 RMK AO2 T00880066
KBEC 191215Z AUTO 15004KT 10SM CLR 09/07 A3008 RMK AO2 T00920070
KBEC 191155Z AUTO 15004KT 10SM CLR 09/07 A3008 RMK AO2 T00910070 10130 20091
KBEC 191135Z AUTO 16005KT 10SM CLR 09/07 A3007 RMK AO2 T00940070
KBEC 191115Z AUTO 15004KT 10SM CLR 10/07 A3007 RMK AO2 T01000073
KBEC 191055Z AUTO 15004KT 10SM CLR 10/07 A3007 RMK AO2 T01000071
KBEC 191035Z AUTO 16004KT 10SM CLR 10/07 A3007 RMK AO2 T01000071
KBEC 191015Z AUTO 17006KT 10SM CLR 10/07 A3007 RMK AO2 T01040073
KBEC 190955Z AUTO 17004KT 10SM CLR 11/08 A3007 RMK AO2 T01120076
KBEC 190935Z AUTO 17006KT 10SM CLR 10/07 A3006 RMK AO2 T01000074
KBEC 190915Z AUTO 18005KT 10SM CLR 10/08 A3006 RMK AO2 T01010075
KBEC 190855Z AUTO 18005KT 5SM HZ CLR 10/08 A3007 RMK AO2 T01030077
KBEC 190835Z AUTO 17004KT 10SM CLR 11/08 A3007 RMK AO2 T01140080
KBEC 190815Z AUTO 18004KT 10SM CLR 12/08 A3007 RMK AO2 T01150083
KBEC 190755Z AUTO 19005KT 10SM CLR 11/08 A3007 RMK AO2 T01100080
KBEC 190735Z AUTO 19005KT 10SM CLR 11/08 A3007 RMK AO2 T01130081
KBEC 190715Z AUTO 18004KT 10SM CLR 12/08 A3006 RMK AO2 T01160080
KBEC 190655Z AUTO 18004KT 10SM CLR 12/08 A3006 RMK AO2 T01200080
KBEC 190635Z AUTO 18004KT 10SM CLR 13/08 A3006 RMK AO2 T01300083
KBEC 190615Z AUTO 18005KT 10SM CLR 13/08 A3006 RMK AO2 T01250083
KBEC 190555Z AUTO 18005KT 10SM CLR 12/08 A3005 RMK AO2 T01210079 10195 20121 402560083
KBEC 190535Z AUTO 18003KT 10SM CLR 14/09 A3006 RMK AO2 T01350085
KBEC 190515Z AUTO 17004KT 10SM CLR 13/08 A3006 RMK AO2 T01330084
KBEC 190455Z AUTO 17005KT 10SM CLR 14/09 A3006 RMK AO2 T01350086
KBEC 190435Z AUTO 15005KT 10SM CLR 14/09 A3005 RMK AO2 T01430086
KBEC 190415Z AUTO 14006KT 10SM CLR 15/09 A3005 RMK AO2 T01510090
KBEC 190355Z AUTO 14006KT 10SM CLR 15/09 A3005 RMK AO2 T01500090
KBEC 190335Z AUTO 14006KT 10SM CLR 15/09 A3005 RMK AO2 T01470086
KBEC 190315Z AUTO 14006KT 10SM CLR 15/08 A3005 RMK AO2 T01510083
KBEC 190255Z AUTO 16003KT 10SM CLR 15/09 A3005 RMK AO2 T01500085
KBEC 190235Z AUTO 13006KT 10SM CLR 15/09 A3004 RMK AO2 T01500085
KBEC 190215Z AUTO 14007KT 10SM CLR 16/08 A3004 RMK AO2 T01560083
KBEC 190155Z AUTO 14005KT 10SM CLR 16/08 A3003 RMK AO2 T01640084
KBEC 190135Z AUTO 15008KT 10SM CLR 17/09 A3002 RMK AO2 T01710085
KBEC 190115Z AUTO 16009KT 10SM CLR 17/09 A3002 RMK AO2 T01730087
KBEC 190055Z AUTO 17007KT 10SM CLR 16/09 A3002 RMK AO2 T01570090
KBEC 190035Z AUTO 16007KT 10SM CLR 16/09 A3001 RMK AO2 T01560091
KBEC 190015Z AUTO 15007KT 10SM CLR 17/09 A3001 RMK AO2 T01730089
KBEC 182355Z AUTO 17005KT 10SM CLR 19/09 A3001 RMK AO2 T01940090 10256 20190
KBEC 182335Z AUTO 17004KT 10SM CLR 20/09 A3000 RMK AO2 T01970090
KBEC 182315Z AUTO 18005KT 10SM CLR 21/09 A3000 RMK AO2 T02070091
KBEC 182255Z AUTO 19006KT 10SM CLR 22/10 A3000 RMK AO2 T02210095
KBEC 182235Z AUTO 19007KT 10SM CLR 24/09 A3000 RMK AO2 T02370088
KBEC 182215Z AUTO 18006KT 10SM CLR 24/09 A2999 RMK AO2 T02420090
KBEC 182155Z AUTO 18007KT 10SM CLR 24/08 A2999 RMK AO2 T02400084
KBEC 182135Z AUTO 18006KT 10SM CLR 24/08 A2999 RMK AO2 T02430084
KBEC 182115Z AUTO 20008G18KT 10SM CLR 24/08 A2999 RMK AO2 T02440081